22°C Temp
11°C Dewpoint
50% Humidity
Temperature
21 KM/H
13 MPH
11 KTS
170°
Due South

Wind Speed
Clear
Conditions
Pressure 1012.92 (hPa) - 29.91 (in)
Visibility 6.2 (mi) - 10.0 (km)

Current Conditions
EKCH
Location 55(km)
Metar :EKCH 181450Z AUTO 17011KT 9999 NCD 22/11 Q1013 NOSIG
Thu 18th July 16:50 pm

Airport
  Metar Aviation API Data Provided by https://www.checkwx.com/ PHP scripts by weather34.com ©2019